Bao An Cheng 69 — BVBD5 — position and weather

sailwx.info

Track history (hours):
 
Tides and Currents Weather Stations Pressure Air Temp Water Temp Dewpoint Dewpoint Depression Visibility Wind Speed Wind Dir Waves Ship Positions

Bao An Cheng 69

Last reported at 2017-May-27 09:44 UTC. Time now 2017-May-27 13:48 UTC.
Position N 24°49' E 118°44'.

Length 121 m; draft 5.6 m.

Type: Cargo ship. MMSI: 412703090.

Date/timePositionNaut miles runAvg speedWind from/ knotsBaromVisibWave heightAir tempDewpointWater temp
2017-May-27 09:44N 24°49' E 118°44'1 2.5
2017-May-27 09:22N 24°49' E 118°45'22 7.0
2017-May-27 06:12N 24°28' E 118°37'3 7.3
2017-May-27 05:47N 24°26' E 118°35'2 7.3
2017-May-27 05:30N 24°24' E 118°33'4 7.4
2017-May-27 04:57N 24°21' E 118°30'3 7.5
2017-May-27 04:29N 24°19' E 118°28'4 7.9
2017-May-27 03:58N 24°15' E 118°25'4 8.6
2017-May-27 03:30N 24°12' E 118°22'4 8.8
2017-May-27 03:00N 24°09' E 118°19'5 9.2
2017-May-27 02:27N 24°06' E 118°15'5 9.8
2017-May-27 01:58N 24°03' E 118°10'510.1
2017-May-27 01:29N 23°60' E 118°06'  
2017-May-24 08:18N 24°02' E 118°08'3 8.7
2017-May-24 08:00N 24°03' E 118°11'4 8.8
2017-May-24 07:30N 24°06' E 118°15'5 9.0
2017-May-24 06:58N 24°09' E 118°18'5 9.6
2017-May-24 06:28N 24°13' E 118°22'5 9.6
2017-May-24 05:59N 24°16' E 118°25'610.0
2017-May-24 05:26N 24°20' E 118°30'4 9.9
2017-May-24 05:00N 24°23' E 118°33'5 9.9
2017-May-24 04:29N 24°27' E 118°36'23 6.8
2017-May-24 01:10N 24°49' E 118°43'0 0.2
2017-May-24 00:51N 24°49' E 118°43'0 0.0
2017-May-23 20:12N 24°49' E 118°43'0 0.0
2017-May-23 20:00N 24°49' E 118°43'0 0.0
2017-May-23 19:30N 24°49' E 118°43'0 0.0
2017-May-23 09:39N 24°49' E 118°43'1 1.9
2017-May-23 09:21N 24°49' E 118°44'4 1.0
2017-May-23 05:31N 24°47' E 118°47'0 0.0
2017-May-23 01:03N 24°47' E 118°47'0 0.3
2017-May-23 01:00N 24°47' E 118°47'20 8.8
2017-May-22 22:41N 24°29' E 118°38'210.5
2017-May-22 22:29N 24°27' E 118°36'810.9
2017-May-22 21:43N 24°21' E 118°30'210.5
2017-May-22 21:30N 24°19' E 118°29'711.1
2017-May-22 20:54N 24°14' E 118°24'510.9
2017-May-22 20:27N 24°11' E 118°20'511.0
2017-May-22 20:00N 24°07' E 118°16'510.7
2017-May-22 19:30N 24°04' E 118°12'510.4
2017-May-22 19:00N 24°01' E 118°07'4 0.1
2017-May-21 07:35N 24°03' E 118°11'2 9.1
2017-May-21 07:25N 24°04' E 118°12'4 9.0
2017-May-21 07:00N 24°07' E 118°15'5 9.5
2017-May-21 06:30N 24°09' E 118°20'5 8.8
2017-May-21 05:55N 24°14' E 118°23'5 9.7
2017-May-21 05:22N 24°18' E 118°27'810.0
2017-May-21 04:36N 24°23' E 118°32'110.4
2017-May-21 04:30N 24°24' E 118°33'510.0
2017-May-21 04:00N 24°28' E 118°37'22 7.7
2017-May-21 01:07N 24°49' E 118°43'0 0.2
2017-May-21 00:54N 24°49' E 118°43'0 0.0
2017-May-20 22:09N 24°49' E 118°43'0 0.0
2017-May-20 21:57N 24°49' E 118°43'0 0.0
2017-May-20 17:10N 24°49' E 118°43'0 0.0
2017-May-20 15:58N 24°49' E 118°43'0 0.0
2017-May-20 15:27N 24°49' E 118°43'0 0.0
2017-May-20 09:37N 24°49' E 118°43'0 1.8
2017-May-20 09:26N 24°49' E 118°43'3 6.5
2017-May-20 09:00N 24°49' E 118°46'23 2.0
2017-May-19 21:24N 24°27' E 118°37'4 9.7
2017-May-19 21:00N 24°24' E 118°34'6 9.8
2017-May-19 20:26N 24°20' E 118°30'6 9.9
2017-May-19 19:51N 24°16' E 118°25'410.3
2017-May-19 19:29N 24°13' E 118°23'510.4
2017-May-19 18:59N 24°10' E 118°18'510.4
2017-May-19 18:31N 24°06' E 118°14'4 0.1
2017-May-18 06:16N 24°04' E 118°11'4 9.2
2017-May-18 05:49N 24°07' E 118°14'3 9.5
2017-May-18 05:29N 24°09' E 118°17'5 9.6
2017-May-18 04:57N 24°12' E 118°21'8 9.6
2017-May-18 04:07N 24°18' E 118°27'2 9.8
2017-May-18 03:56N 24°19' E 118°28'5 9.9
2017-May-18 03:28N 24°23' E 118°32'5 9.8
2017-May-18 03:00N 24°26' E 118°35'24 8.1
2017-May-18 00:01N 24°49' E 118°43'0 0.4
2017-May-18 00:00N 24°49' E 118°43'0 0.1
2017-May-17 23:30N 24°49' E 118°43'  
Track history (hours):
 
Tides and Currents Weather Stations Pressure Air Temp Water Temp Dewpoint Dewpoint Depression Visibility Wind Speed Wind Dir Waves Ship Positions

Bao An Cheng 69

Last reported at 2017-May-27 09:44 UTC. Time now 2017-May-27 13:48 UTC.
Position N 24°49' E 118°44'.

Length 121 m; draft 5.6 m.

Type: Cargo ship. MMSI: 412703090.

Date/timePositionNaut miles runAvg speedWind from/ knotsBaromVisibWave heightAir tempDewpointWater temp
2017-May-27 09:44N 24°49' E 118°44'1 2.5
2017-May-27 09:22N 24°49' E 118°45'22 7.0
2017-May-27 06:12N 24°28' E 118°37'3 7.3
2017-May-27 05:47N 24°26' E 118°35'2 7.3
2017-May-27 05:30N 24°24' E 118°33'4 7.4
2017-May-27 04:57N 24°21' E 118°30'3 7.5
2017-May-27 04:29N 24°19' E 118°28'4 7.9
2017-May-27 03:58N 24°15' E 118°25'4 8.6
2017-May-27 03:30N 24°12' E 118°22'4 8.8
2017-May-27 03:00N 24°09' E 118°19'5 9.2
2017-May-27 02:27N 24°06' E 118°15'5 9.8
2017-May-27 01:58N 24°03' E 118°10'510.1
2017-May-27 01:29N 23°60' E 118°06'  
2017-May-24 08:18N 24°02' E 118°08'3 8.7
2017-May-24 08:00N 24°03' E 118°11'4 8.8
2017-May-24 07:30N 24°06' E 118°15'5 9.0
2017-May-24 06:58N 24°09' E 118°18'5 9.6
2017-May-24 06:28N 24°13' E 118°22'5 9.6
2017-May-24 05:59N 24°16' E 118°25'610.0
2017-May-24 05:26N 24°20' E 118°30'4 9.9
2017-May-24 05:00N 24°23' E 118°33'5 9.9
2017-May-24 04:29N 24°27' E 118°36'23 6.8
2017-May-24 01:10N 24°49' E 118°43'0 0.2
2017-May-24 00:51N 24°49' E 118°43'0 0.0
2017-May-23 20:12N 24°49' E 118°43'0 0.0
2017-May-23 20:00N 24°49' E 118°43'0 0.0
2017-May-23 19:30N 24°49' E 118°43'0 0.0
2017-May-23 09:39N 24°49' E 118°43'1 1.9
2017-May-23 09:21N 24°49' E 118°44'4 1.0
2017-May-23 05:31N 24°47' E 118°47'0 0.0
2017-May-23 01:03N 24°47' E 118°47'0 0.3
2017-May-23 01:00N 24°47' E 118°47'20 8.8
2017-May-22 22:41N 24°29' E 118°38'210.5
2017-May-22 22:29N 24°27' E 118°36'810.9
2017-May-22 21:43N 24°21' E 118°30'210.5
2017-May-22 21:30N 24°19' E 118°29'711.1
2017-May-22 20:54N 24°14' E 118°24'510.9
2017-May-22 20:27N 24°11' E 118°20'511.0
2017-May-22 20:00N 24°07' E 118°16'510.7
2017-May-22 19:30N 24°04' E 118°12'510.4
2017-May-22 19:00N 24°01' E 118°07'4 0.1
2017-May-21 07:35N 24°03' E 118°11'2 9.1
2017-May-21 07:25N 24°04' E 118°12'4 9.0
2017-May-21 07:00N 24°07' E 118°15'5 9.5
2017-May-21 06:30N 24°09' E 118°20'5 8.8
2017-May-21 05:55N 24°14' E 118°23'5 9.7
2017-May-21 05:22N 24°18' E 118°27'810.0
2017-May-21 04:36N 24°23' E 118°32'110.4
2017-May-21 04:30N 24°24' E 118°33'510.0
2017-May-21 04:00N 24°28' E 118°37'22 7.7
2017-May-21 01:07N 24°49' E 118°43'0 0.2
2017-May-21 00:54N 24°49' E 118°43'0 0.0
2017-May-20 22:09N 24°49' E 118°43'0 0.0
2017-May-20 21:57N 24°49' E 118°43'0 0.0
2017-May-20 17:10N 24°49' E 118°43'0 0.0
2017-May-20 15:58N 24°49' E 118°43'0 0.0
2017-May-20 15:27N 24°49' E 118°43'0 0.0
2017-May-20 09:37N 24°49' E 118°43'0 1.8
2017-May-20 09:26N 24°49' E 118°43'3 6.5
2017-May-20 09:00N 24°49' E 118°46'23 2.0
2017-May-19 21:24N 24°27' E 118°37'4 9.7
2017-May-19 21:00N 24°24' E 118°34'6 9.8
2017-May-19 20:26N 24°20' E 118°30'6 9.9
2017-May-19 19:51N 24°16' E 118°25'410.3
2017-May-19 19:29N 24°13' E 118°23'510.4
2017-May-19 18:59N 24°10' E 118°18'510.4
2017-May-19 18:31N 24°06' E 118°14'4 0.1
2017-May-18 06:16N 24°04' E 118°11'4 9.2
2017-May-18 05:49N 24°07' E 118°14'3 9.5
2017-May-18 05:29N 24°09' E 118°17'5 9.6
2017-May-18 04:57N 24°12' E 118°21'8 9.6
2017-May-18 04:07N 24°18' E 118°27'2 9.8
2017-May-18 03:56N 24°19' E 118°28'5 9.9
2017-May-18 03:28N 24°23' E 118°32'5 9.8
2017-May-18 03:00N 24°26' E 118°35'24 8.1
2017-May-18 00:01N 24°49' E 118°43'0 0.4
2017-May-18 00:00N 24°49' E 118°43'0 0.1
2017-May-17 23:30N 24°49' E 118°43'  

Dump ship's entire track history